Weather at Ketcham Landing Area Airport

Public forecast

Using degrees Fahrenheit for public forecast. Weather courtesy of forecast.io.

Closest aviation weather report (METAR) to Ketcham Landing Area Airport

Closest report is Edward F Knapp State Airport, 12.0 nm (22.2 km) ENE.

2024/07/25 09:51 (retrieved 30 minutes ago)

KMPV 250951Z AUTO VRB04KT 10SM OVC006 19/17 A3005 RMK AO2 SLP171 T01890172

Closest aviation forecast (TAF) to Ketcham Landing Area Airport

Closest forecast is Edward F Knapp State Airport, 12.0 nm (22.2 km) ENE.

2024/07/25 06:33 (retrieved 4 hours ago)

TAF KMPV 250530Z 2506/2606 17006KT P6SM OVC012 TEMPO 2509/2512 3SM BR OVC009 FM251300 21005KT P6SM SCT020 FM251500 23006KT P6SM SCT035 FM252000 28010G17KT P6SM VCSH SCT070 FM260200 29007KT P6SM SCT025